SEBI

Registration No.

INH000000305

Ip Address Lookup

So far visitors:

customizable counter

TRIAL

TRIAL

SEND SMS FOR TRIAL

EQUITY - COMMODITY OR BOTH

TO

 09920033678

AND GET TRIAL

 


Information: COPPER (MCX): LOT SIZE CHANGED TO 2500 from 1000 (from JUL CONTRACT)

SEBI Registration No.: INH000000305 *****

* Commodity: 9500/month * Equity: 6000/month


* Gold Package: 7000 * Gold-Silver Package: 8100
*Crude-NG-Copper-Nickel Package: 6000


To See Past Performance, Click Here

For TRIAL / Registration,

click here

Past Performance >> Equity Tips
 
Search
 
Entry Start Date Entry End Date
Exit Start Date Exit End Date
Scrip Name Contract
Package
 

Packages: Precious Metals - Energy and Base Metals - Profit is calculated on basis of 1 lot per call

Package: Equity calls: Profit is calculated as follows:

1. If the scrip is in F & O then 1 lot is counted otherwise

2. Trade of Rs.1,50,000/- per call is counted.

 
Page: ( 1 2 3 4 5 6 7 8 9 10 11 12 13 14 15 16 17 18 19 20 21 22 23 24 25 26 27 28 29 30 31 32 33 34 35 36 37 38 39 40 41 42 43 44 45 46 47 48 49 50 51 52 53 54 55 56 57 58 59 60 61 62 63 64 65 66 67 68 69 70 71 72 73 74 75 76 77 78 79 80 81 82 83 84 85 86 87 88 89 90 91 92 93 94 95 96 97 98 99 100 101 102 103 104 105 106 107 108 109 110 111 ) [Current Page: 14]
Displaying 976 to 1050   Calls
Entry Date Type Scrip Entry Price (Rs) T1
(Rs)
T2
(Rs)
T3
(Rs)
Stop Loss
(Rs)
Exit Date Exit Rate
(Rs)
Profit
(Rs)
 
02-04-18 Buy Nifty 10190 10220 10240 10260 10160 02-04-18 10260 10500.00 More
02-04-18 Sell LICHSGFIN 541 536 534 530 545 02-04-18 535 6600.00 More
02-04-18 Buy BPCL 431 436 438 440 425 02-04-18 425 -10800.00 More
28-03-18 Buy SUN PHARMA 503 509 512 514 494 02-04-18 512 9900.00 More
28-03-18 Sell CANARA BANK 267 264 260 255 272 28-03-18 272 -8000.00 More
27-03-18 Sell ADANI PORTS 367 364 362 359 372 27-03-18 364 7500.00 More
26-03-18 Buy RELIANCE CAPITAL 415 423 428 435 405 26-03-18 418 2250.00 More
22-03-18 Buy KAJARIA CERAMIC 565 600 625 650 549 26-03-18 549 -4800.00 More
22-03-18 Buy BANK NIFTY 24290 24330 24350 24450 24240 22-03-18 24240 -4000.00 More
22-03-18 Buy GHCL 286 290 295 300 282 22-03-18 282 -2000.00 More
20-03-18 Sell RELIANCE INFRA 425 419 417 415 430 20-03-18 430 -6500.00 More
19-03-18 Sell RELIANCE CAPITAL 426 421 419 414 436 19-03-18 416 15000.00 More
15-03-18 Buy BOMDYEING 260 275 280 290 245 19-03-18 271 6600.00 More
15-03-18 Sell COLGATE 1039 1034 1029 1025 1045 15-03-18 1040 -700.00 More
15-03-18 Buy BERGER PAINT 250 255 260 265 243 16-03-18 255 11000.00 More
15-03-18 Buy TITAN 863 868 870 875 854.50 15-03-18 875 18000.00 More
14-03-18 Buy FEDERAL BANK 95 100 110 120 91.90 19-03-18 91.90 -17050.00 More
14-03-18 Buy PNB 95 100 104 110 90 14-03-18 100 20000.00 More
13-03-18 Buy STAR 674 680 690 700 660 15-03-18 700 15600.00 More
13-03-18 Buy JINDAL STEEL 230 234 235 238 227 13-03-18 237 31500.00 More
13-03-18 Buy GLENMARK 539 544 550 555 534 13-03-18 534 -4500.00 More
12-03-18 Buy SUNTV 885 895 898 900 875 12-03-18 891 6000.00 More
09-03-18 Sell Century Textiles 1142 1134 1130 1120 1152 12-03-18 1155 -7150.00 More
08-03-18 Buy ITC 260 266 268 270 255 12-03-18 270 24000.00 More
08-03-18 Buy BOI 98 102 103 104 94.30 08-03-18 100.40 14400.00 More
08-03-18 Sell SUNTV 905 890 885 880 917 08-03-18 880 25000.00 More
07-03-18 Buy RELIANCE CAPITAL 423 429 433 440 413 08-03-18 421 -3000.00 More
07-03-18 Buy OBC 93.40 97 99 100 90 08-03-18 95.50 12600.00 More
07-03-18 Sell MIND TREE 838 830 825 820 844 07-03-18 820 21600.00 More
06-03-18 Sell ADANI PORTS 398 390 385 380 410 07-03-18 394 10000.00 More
06-03-18 Sell HDFC 1805 1800 1795 1790 1818 06-03-18 1795 5000.00 More
06-03-18 Sell TATA STEEL 666 661 660 655 671 06-03-18 661 5305.00 More
05-03-18 Buy RELIANCE 944 949 951 960 934 05-03-18 934 -10000.00 More
01-03-18 Buy CAPF 675 685 690 695 665 01-03-18 685 8000.00 More
01-03-18 Buy JUST DIAL 453 465 470 475 440 05-03-18 440 -18200.00 More
01-03-18 Buy Adani Power 31.75 32.75 33.75 37 30.75 05-03-18 30.75 -20000.00 More
28-02-18 Buy HINDUNILVR 1336 1344 1348 1350 1324 28-02-18 1324 -7200.00 More
28-02-18 Buy BHARAT FOIRG 768 778 785 790 755 28-02-18 790 26400.00 More
28-02-18 Sell BIOCON 625 615 610 600 635 28-02-18 635 -18000.00 More
28-02-18 Buy RELIANCE 950 955 958 960 940 28-02-18 958 8000.00 More
27-02-18 Buy AJMERA REALTY 244 265 290 325 225 09-03-18 238 -3600.00 More
27-02-18 Buy V2RETAIL 404 414 418 425 390 27-02-18 424 7500.00 More
27-02-18 Sell SBI 275 272 271 270 278 27-02-18 270 15000.00 More
26-02-18 Buy DMART 1293 1315 1320 1325 1264 27-02-18 1325 4000.00 More
26-02-18 Buy GODFRYPH 886 900 905 925 864 26-02-18 915 14500.00 More
23-02-18 Buy JUST DIAL 465 475 480 485 455 26-02-18 474 12600.00 More
23-02-18 Buy M&M 720 735 745 750 700 26-02-18 745 25000.00 More
23-02-18 Sell SUNTV 918 910 905 900 927 23-02-18 912 6000.00 More
22-02-18 Sell TATA STEEL 646 640 638 632 651 22-02-18 638 8488.00 More
22-02-18 Sell JSW STEEL 297 293 291 290 300 22-02-18 300 -9000.00 More
21-02-18 Buy Nifty 10375 10410 10430 10450 10340 21-02-18 10400 3750.00 More
21-02-18 Sell VOLTAS 557 552 548 545 563 21-02-18 553 4000.00 More
21-02-18 Sell ASIAN PAINT 1128 1115 1110 1100 1145 21-02-18 1124 2400.00 More
20-02-18 Buy HDIL 52 55 58 60 50 21-02-18 50 -18000.00 More
20-02-18 Sell SUNTV 915 905 900 895 925 20-02-18 905 10000.00 More
20-02-18 Buy 437 444 448 450 431.50 20-02-18 444 2275.00 More
20-02-18 Sell DLF 223.90 221 218 215 225. 20-02-18 221.90 10000.00 More
19-02-18 Buy BOMDYEING 283 293 298 320 271 27-02-18 271 -7200.00 More
19-02-18 Sell PC Jewellers 370 360 350 389 19-02-18 350 30000.00 More
19-02-18 Buy 1318 1328 1338 1360 1300 19-02-18 1300 -9000.00 More
19-02-18 Sell ESCORTS 892 888 882 880 900 19-02-18 880 13200.00 More
16-02-18 Sell VOLTAS 584 578 576 574 592 16-02-18 577 7000.00 More
16-02-18 Buy ESCORTS 880 884 886 888 876 16-02-18 876 -4400.00 More
16-02-18 Buy Delta Corp 382 392 395 400 372 16-02-18 372 -6000.00 More
15-02-18 Sell AXIS BANK 548 538 535 532 558 15-02-18 543 6000.00 More
15-02-18 Buy LOVABLE 236 242 246 248 232 15-02-18 242 3900.00 More
14-02-18 Buy ONGC 189 193 197 203 186.50 14-02-18 186.50 -9375.00 More
14-02-18 Sell HCL TECH 940 930 920 910 950 14-02-18 935 3500.00 More
12-02-18 Buy BANK NIFTY 25630 25675 25725 25850 25530 12-02-18 25759 10320.00 More
12-02-18 Buy BOMDYEING 253 263 275 290 242 16-02-18 290 22200.00 More
12-02-18 Buy VEDL 315 319 320 322 312 14-02-18 324 15750.00 More
09-02-18 Buy Reliance Power 41.60 43 44 45 40.90 09-02-18 45 44200.00 More
09-02-18 Buy 800 820 825 830 790 09-02-18 830 6000.00 More
08-02-18 Buy Reliance Power 41.60 43 44 45 40.90 08-02-18 43 18200.00 More
08-02-18 Sell Century Textiles 1230 1210 1180 1170 1241 08-02-18 1241 -6050.00 More
Page wise profit 412013.00 Rs
Profit 26154042.00 Rs
TRIAL

TRIAL

SEND SMS FOR TRIAL

EQUITY - COMMODITY OR BOTH

TO

 09920033678

AND GET TRIAL